Time;durP1;ratioP1;P1;durP2;ratioP2;P2;SDS_P1;SDS_P2;PMS_P1;PMS_P2;Temp;Humidity;BMP_temperature;BMP_pressure;BME280_temperature;BME280_humidity;BME280_pressure;Samples;Min_cycle;Max_cycle;Signal;HPM_P1;HPM_P2
2023/01/01 00:00:14;;;;;;;17.00;9.53;;;;;;;9.72;83.42;100317.77;1801794;77;21542;-76
2023/01/01 00:02:42;;;;;;;18.30;8.45;;;;;;;9.67;83.32;100335.11;1822111;78;21073;-76
2023/01/01 00:05:09;;;;;;;19.35;9.90;;;;;;;9.62;83.31;100329.05;1810868;78;20981;-76
2023/01/01 00:07:35;;;;;;;20.55;11.30;;;;;;;9.58;83.51;100335.56;1825696;78;21030;-76
2023/01/01 00:12:47;;;;;;;19.25;8.65;;;;;;;9.43;83.37;100336.41;1823950;78;21047;-76
2023/01/01 00:15:13;;;;;;;16.27;8.55;;;;;;;9.32;83.73;100338.59;1828444;78;20961;-76
2023/01/01 00:17:40;;;;;;;20.17;10.25;;;;;;;9.26;83.45;100339.89;1825193;78;21026;-76
2023/01/01 00:20:07;;;;;;;22.40;10.63;;;;;;;9.21;84.03;100344.64;1826268;78;20963;-76
2023/01/01 00:22:33;;;;;;;24.47;10.60;;;;;;;9.17;84.11;100345.06;1826580;78;21029;-76
2023/01/01 00:25:00;;;;;;;22.10;10.43;;;;;;;9.09;84.57;100350.27;1824633;78;21038;-76
2023/01/01 00:27:27;;;;;;;25.00;10.80;;;;;;;9.08;84.94;100352.86;1817254;78;21030;-76
2023/01/01 00:29:53;;;;;;;21.57;9.85;;;;;;;9.07;84.83;100360.20;1828075;78;20972;-76
2023/01/01 00:32:20;;;;;;;19.87;10.78;;;;;;;9.00;85.45;100359.33;1813430;78;20962;-76
2023/01/01 00:34:47;;;;;;;24.95;12.47;;;;;;;9.01;85.34;100362.78;1822552;78;21620;-76
2023/01/01 00:37:14;;;;;;;25.82;11.48;;;;;;;9.00;85.63;100371.44;1832139;78;21035;-76
2023/01/01 00:39:40;;;;;;;23.60;10.63;;;;;;;9.00;85.21;100374.89;1819812;78;20977;-75
2023/01/01 00:42:07;;;;;;;22.17;11.10;;;;;;;9.01;85.00;100377.05;1832246;78;20994;-76
2023/01/01 00:44:33;;;;;;;21.80;11.65;;;;;;;8.95;85.08;100371.41;1832216;78;21568;-76
2023/01/01 00:47:00;;;;;;;27.35;11.83;;;;;;;8.95;85.65;100376.59;1803540;78;20970;-75
2023/01/01 00:49:26;;;;;;;18.60;9.63;;;;;;;8.92;85.35;100377.47;1822533;78;21003;-75
2023/01/01 00:51:53;;;;;;;19.37;8.83;;;;;;;8.91;85.90;100384.83;1812004;78;21870;-74
2023/01/01 00:54:20;;;;;;;21.60;11.28;;;;;;;8.91;85.38;100378.34;1822307;78;21061;-76
2023/01/01 00:56:46;;;;;;;22.42;10.32;;;;;;;8.90;85.78;100375.74;1825895;78;20977;-75
2023/01/01 00:59:12;;;;;;;23.85;11.03;;;;;;;8.90;85.99;100380.93;1832331;78;21530;-75
2023/01/01 01:01:39;;;;;;;23.15;10.00;;;;;;;8.89;85.92;100391.75;1819255;78;21566;-75
2023/01/01 01:04:07;;;;;;;21.90;10.85;;;;;;;8.88;86.16;100386.55;1822501;78;21065;-76
2023/01/01 01:06:34;;;;;;;21.48;10.68;;;;;;;8.86;86.55;100383.08;1831488;78;20930;-76
2023/01/01 01:09:01;;;;;;;23.60;11.10;;;;;;;8.85;86.71;100379.59;1833492;78;20958;-76
2023/01/01 01:11:28;;;;;;;25.60;13.05;;;;;;;8.86;86.61;100376.16;1818340;78;20967;-76
2023/01/01 01:13:56;;;;;;;28.10;12.50;;;;;;;8.84;86.75;100367.52;1801908;78;21906;-75
2023/01/01 01:16:31;;;;;;;31.87;14.28;;;;;;;8.85;86.77;100370.96;1827059;78;20939;-75
2023/01/01 01:19:02;;;;;;;27.85;13.72;;;;;;;8.83;86.49;100365.77;1818099;78;21001;-77
2023/01/01 01:21:32;;;;;;;26.90;14.25;;;;;;;8.78;86.87;100358.42;1829253;78;21443;-76
2023/01/01 01:24:00;;;;;;;24.98;13.80;;;;;;;8.76;86.24;100357.56;1816442;78;21039;-76
2023/01/01 01:26:31;;;;;;;21.02;12.00;;;;;;;8.70;86.69;100356.25;1822836;78;21503;-76
2023/01/01 01:28:58;;;;;;;24.45;11.15;;;;;;;8.67;85.98;100362.70;1797368;78;21444;-76
2023/01/01 01:31:29;;;;;;;21.30;10.45;;;;;;;8.55;87.00;100355.75;1817559;78;20993;-76
2023/01/01 01:33:56;;;;;;;27.17;11.65;;;;;;;8.57;86.55;100354.03;1814264;78;20986;-75
2023/01/01 01:36:25;;;;;;;22.15;10.00;;;;;;;8.51;87.30;100349.69;1815518;78;21514;-76
2023/01/01 01:38:52;;;;;;;21.25;10.20;;;;;;;8.51;87.15;100336.73;1822252;78;20942;-76
2023/01/01 01:41:21;;;;;;;16.80;9.48;;;;;;;8.49;87.53;100335.00;1826546;78;20976;-75
2023/01/01 01:44:02;;;;;;;20.52;9.20;;;;;;;8.48;87.55;100341.92;1816480;78;21469;-76
2023/01/01 01:46:42;;;;;;;21.15;9.38;;;;;;;8.47;87.70;100340.17;1816142;78;20954;-75
2023/01/01 01:49:28;;;;;;;19.37;9.43;;;;;;;8.45;87.91;100347.08;1819990;78;20927;-76
2023/01/01 01:51:55;;;;;;;21.70;9.95;;;;;;;8.44;87.83;100344.06;1786305;78;20963;-76
2023/01/01 01:54:25;;;;;;;21.52;10.03;;;;;;;8.47;87.80;100348.39;1829948;78;20989;-76
2023/01/01 01:57:02;;;;;;;20.40;10.65;;;;;;;8.39;87.93;100340.98;1828216;78;21009;-76
2023/01/01 01:59:33;;;;;;;22.15;10.30;;;;;;;8.38;87.58;100349.20;1811062;78;20986;-76
2023/01/01 02:02:00;;;;;;;20.55;10.58;;;;;;;8.39;87.31;100342.28;1804708;78;20991;-77
2023/01/01 02:04:28;;;;;;;20.52;10.28;;;;;;;8.40;86.77;100354.39;1810142;78;20989;-75
2023/01/01 02:06:54;;;;;;;19.90;10.55;;;;;;;8.36;87.09;100352.21;1811529;78;20940;-75
2023/01/01 02:09:21;;;;;;;18.77;8.45;;;;;;;8.34;87.65;100356.52;1829593;78;20981;-75
2023/01/01 02:11:48;;;;;;;17.73;8.88;;;;;;;8.35;87.01;100358.23;1818018;78;21034;-75
2023/01/01 02:14:15;;;;;;;17.95;7.70;;;;;;;8.34;87.35;100355.23;1827008;78;21949;-75
2023/01/01 02:16:59;;;;;;;17.27;8.23;;;;;;;8.34;87.40;100353.94;1820372;78;20983;-75
2023/01/01 02:19:48;;;;;;;15.53;8.58;;;;;;;8.35;87.49;100358.23;1820312;78;21912;-76
2023/01/01 02:22:38;;;;;;;20.45;10.10;;;;;;;8.35;87.59;100354.35;1796155;78;21038;-76
2023/01/01 02:25:15;;;;;;;15.60;8.15;;;;;;;8.34;87.69;100359.11;1802659;79;21604;-76
2023/01/01 02:28:28;;;;;;;20.32;9.55;;;;;;;8.42;87.47;100366.52;1807578;79;21024;-75
2023/01/01 02:30:57;;;;;;;23.15;11.05;;;;;;;8.39;87.63;100363.02;1807951;79;21016;-76
2023/01/01 02:33:26;;;;;;;24.70;12.05;;;;;;;8.28;87.73;100368.16;1807984;79;21571;-74
2023/01/01 02:36:01;;;;;;;27.32;12.50;;;;;;;8.32;87.47;100375.09;1808039;79;21052;-76
2023/01/01 02:38:36;;;;;;;23.75;11.80;;;;;;;8.26;87.47;100372.47;1807980;79;21045;-76
2023/01/01 02:41:25;;;;;;;26.77;12.28;;;;;;;8.26;87.04;100385.42;1809023;79;21621;-76
2023/01/01 02:43:53;;;;;;;23.65;11.65;;;;;;;8.19;87.46;100386.23;1809324;79;20997;-76
2023/01/01 02:46:20;;;;;;;24.20;12.47;;;;;;;8.12;87.64;100374.98;1809389;79;20969;-76
2023/01/01 02:48:50;;;;;;;27.65;13.13;;;;;;;8.11;87.15;100381.87;1808562;79;22139;-75
2023/01/01 02:51:46;;;;;;;24.20;11.55;;;;;;;8.06;87.82;100387.47;1809340;79;21027;-76
2023/01/01 02:54:44;;;;;;;21.33;10.45;;;;;;;8.06;87.17;100378.84;1809328;79;20965;-75
2023/01/01 02:57:37;;;;;;;21.42;11.08;;;;;;;8.03;87.26;100391.32;1809386;79;21060;-75
2023/01/01 03:00:27;;;;;;;22.67;11.10;;;;;;;8.04;87.66;100387.89;1809289;79;21750;-76
2023/01/01 03:03:27;;;;;;;22.75;11.30;;;;;;;8.03;87.89;100387.44;1783533;79;20973;-76
2023/01/01 03:06:23;;;;;;;23.38;11.53;;;;;;;7.97;88.68;100391.29;1809357;79;20949;-76
2023/01/01 03:09:04;;;;;;;23.25;11.65;;;;;;;7.99;88.90;100396.05;1809370;79;21005;-76
2023/01/01 03:12:05;;;;;;;33.35;15.90;;;;;;;7.94;88.54;100406.83;1808214;79;21052;-75
2023/01/01 03:14:49;;;;;;;30.00;13.35;;;;;;;7.97;88.60;100416.75;1808138;79;21811;-75
2023/01/01 03:17:25;;;;;;;30.77;14.38;;;;;;;8.05;88.81;100412.06;1808013;79;21029;-76
2023/01/01 03:19:55;;;;;;;29.37;13.38;;;;;;;8.06;88.76;100405.60;1807540;79;21056;-76
2023/01/01 03:22:30;;;;;;;28.83;14.28;;;;;;;8.09;88.65;100399.13;1779520;79;21036;-76
2023/01/01 03:25:06;;;;;;;31.37;14.85;;;;;;;8.05;88.59;100406.45;1774878;80;21053;-75
2023/01/01 03:27:57;;;;;;;31.57;15.10;;;;;;;8.02;88.20;100413.32;1799854;80;21041;-76
2023/01/01 03:30:24;;;;;;;30.48;14.10;;;;;;;7.90;88.90;100416.29;1799809;80;21009;-75
2023/01/01 03:32:59;;;;;;;26.73;15.45;;;;;;;7.86;88.31;100418.83;1766751;80;21579;-76
2023/01/01 03:35:36;;;;;;;28.90;13.75;;;;;;;7.81;88.19;100421.39;1799822;80;21044;-75
2023/01/01 03:38:08;;;;;;;25.57;11.43;;;;;;;7.76;88.37;100423.95;1799864;79;21036;-75
2023/01/01 03:40:37;;;;;;;28.12;11.10;;;;;;;7.74;88.99;100420.92;1800119;80;21040;-76
2023/01/01 03:43:21;;;;;;;26.25;12.07;;;;;;;7.76;88.91;100417.92;1800941;80;21024;-76
2023/01/01 03:45:52;;;;;;;21.00;12.13;;;;;;;7.76;89.39;100414.89;1741649;79;20995;-76
2023/01/01 03:48:18;;;;;;;28.92;12.20;;;;;;;7.82;88.89;100416.67;1799722;80;20999;-75
2023/01/01 03:51:11;;;;;;;26.75;10.63;;;;;;;7.83;89.21;100427.45;1799738;80;21040;-76
2023/01/01 03:53:42;;;;;;;23.67;10.65;;;;;;;7.87;89.41;100425.75;1799728;80;21073;-76
2023/01/01 03:56:45;;;;;;;26.00;11.95;;;;;;;7.90;89.21;100438.73;1799747;80;21051;-75
2023/01/01 03:59:26;;;;;;;29.65;11.65;;;;;;;7.92;89.17;100430.55;1799691;80;21011;-76
2023/01/01 04:01:56;;;;;;;27.87;11.80;;;;;;;7.95;89.29;100425.38;1799897;80;21577;-76
2023/01/01 04:04:25;;;;;;;29.10;13.32;;;;;;;8.05;89.27;100434.08;1799802;80;21065;-76
2023/01/01 04:06:53;;;;;;;25.97;12.73;;;;;;;8.10;89.17;100434.98;1800533;78;21133;-76
2023/01/01 04:09:25;;;;;;;31.37;13.22;;;;;;;8.15;89.10;100449.67;1828591;77;21253;-76
2023/01/01 04:12:01;;;;;;;30.35;13.68;;;;;;;8.20;89.12;100447.13;1792538;78;20986;-76
2023/01/01 04:14:39;;;;;;;27.80;13.80;;;;;;;8.26;89.06;100441.98;1832174;76;21072;-77
2023/01/01 04:17:09;;;;;;;26.52;13.65;;;;;;;8.29;88.64;100442.42;1832990;76;21017;-76
2023/01/01 04:19:36;;;;;;;34.00;15.43;;;;;;;8.29;88.55;100434.21;1763446;80;20969;-76
2023/01/01 04:22:03;;;;;;;30.77;15.93;;;;;;;8.28;88.24;100445.89;1830577;78;20962;-76
2023/01/01 04:24:30;;;;;;;28.55;14.03;;;;;;;8.26;88.23;100448.47;1763823;79;20991;-75
2023/01/01 04:26:57;;;;;;;30.27;14.38;;;;;;;8.24;88.07;100459.25;1777840;80;21555;-76
2023/01/01 04:29:23;;;;;;;29.57;14.85;;;;;;;8.22;88.03;100458.38;1830192;76;20977;-76
2023/01/01 04:31:50;;;;;;;27.98;14.25;;;;;;;8.19;87.94;100454.45;1831603;78;20987;-76
2023/01/01 04:34:17;;;;;;;32.55;14.47;;;;;;;8.14;87.73;100449.69;1815199;78;20972;-76
2023/01/01 04:36:43;;;;;;;27.07;13.28;;;;;;;8.12;87.46;100447.52;1811614;78;21440;-76
2023/01/01 04:39:10;;;;;;;26.30;14.00;;;;;;;8.05;87.66;100445.73;1763654;80;20975;-76
2023/01/01 04:41:36;;;;;;;27.25;13.88;;;;;;;8.00;87.78;100444.41;1822072;78;20969;-76
2023/01/01 04:44:03;;;;;;;32.98;13.40;;;;;;;7.97;87.29;100454.73;1817852;78;20950;-76
2023/01/01 04:46:30;;;;;;;28.17;12.43;;;;;;;7.91;88.24;100453.40;1829419;78;20944;-75
2023/01/01 04:48:56;;;;;;;28.73;13.53;;;;;;;7.90;87.72;100460.31;1779399;80;21488;-75
2023/01/01 04:51:23;;;;;;;33.15;14.07;;;;;;;7.91;87.61;100462.46;1817431;78;21618;-76
2023/01/01 04:53:50;;;;;;;28.27;12.93;;;;;;;7.88;88.21;100458.14;1807341;79;20971;-77
2023/01/01 04:56:20;;;;;;;26.02;12.82;;;;;;;7.87;88.16;100455.09;1780169;78;21075;-76
2023/01/01 04:58:47;;;;;;;28.95;13.38;;;;;;;7.89;88.30;100461.15;1811766;78;21019;-76
2023/01/01 05:01:19;;;;;;;27.67;12.10;;;;;;;7.90;88.38;100469.81;1764040;80;21038;-76
2023/01/01 05:03:47;;;;;;;27.13;13.00;;;;;;;7.91;88.51;100463.76;1792080;80;21011;-76
2023/01/01 05:06:14;;;;;;;25.32;12.95;;;;;;;7.93;88.61;100467.22;1794501;80;20991;-76
2023/01/01 05:08:44;;;;;;;33.78;12.63;;;;;;;7.97;88.67;100475.45;1811588;79;20899;-76
2023/01/01 05:11:15;;;;;;;29.55;13.08;;;;;;;8.03;88.67;100478.09;1815244;79;21480;-76
2023/01/01 05:13:45;;;;;;;30.37;14.23;;;;;;;8.06;88.75;100472.95;1809862;79;20950;-76
2023/01/01 05:16:16;;;;;;;30.82;14.98;;;;;;;8.11;88.50;100477.71;1814037;79;20960;-76
2023/01/01 05:18:43;;;;;;;27.10;14.47;;;;;;;8.12;88.61;100483.78;1807589;79;20982;-76
2023/01/01 05:21:15;;;;;;;28.55;14.40;;;;;;;8.09;88.58;100487.19;1762169;81;21034;-76
2023/01/01 05:23:42;;;;;;;37.57;15.97;;;;;;;8.12;88.41;100487.67;1792272;80;20951;-76
2023/01/01 05:26:16;;;;;;;35.08;16.17;;;;;;;8.14;88.37;100479.48;1767667;79;20974;-76
2023/01/01 05:28:43;;;;;;;29.00;15.63;;;;;;;8.13;88.35;100482.47;1809943;79;20969;-76
2023/01/01 05:31:17;;;;;;;27.60;14.10;;;;;;;8.16;88.20;100481.65;1782767;79;20950;-76
2023/01/01 05:33:44;;;;;;;32.63;14.38;;;;;;;8.12;87.84;100485.94;1811849;79;20958;-76
2023/01/01 05:36:21;;;;;;;30.10;15.40;;;;;;;8.08;88.03;100479.44;1814091;79;20966;-75
2023/01/01 05:38:49;;;;;;;27.73;14.55;;;;;;;8.06;88.06;100478.13;1800770;79;21006;-76
2023/01/01 05:41:17;;;;;;;48.25;21.00;;;;;;;8.04;88.00;100488.91;1791854;79;21029;-75
2023/01/01 05:43:45;;;;;;;111.10;38.88;;;;;;;8.02;88.08;100491.02;1800984;79;21569;-76
2023/01/01 05:46:15;;;;;;;83.72;32.58;;;;;;;8.00;88.03;100485.85;1786490;79;21474;-76
2023/01/01 05:48:42;;;;;;;69.85;27.90;;;;;;;7.97;88.31;100487.97;1782095;79;21022;-76
2023/01/01 05:51:14;;;;;;;45.90;21.42;;;;;;;7.95;88.42;100488.38;1803592;79;21077;-76
2023/01/01 05:53:43;;;;;;;50.55;20.35;;;;;;;7.93;88.23;100488.80;1794872;79;20937;-76
2023/01/01 05:56:10;;;;;;;45.73;19.50;;;;;;;7.90;88.19;100493.11;1802648;79;20962;-75
2023/01/01 05:58:37;;;;;;;35.92;18.52;;;;;;;7.87;87.76;100495.66;1789048;79;21011;-75
2023/01/01 06:01:12;;;;;;;35.03;16.35;;;;;;;7.85;88.12;100501.26;1805715;79;22065;-75
2023/01/01 06:03:39;;;;;;;28.50;14.78;;;;;;;7.83;88.20;100507.70;1791325;79;22216;-76
2023/01/01 06:06:10;;;;;;;41.63;20.05;;;;;;;7.82;88.14;100506.39;1804459;79;20953;-75
2023/01/01 06:08:37;;;;;;;33.23;16.95;;;;;;;7.81;88.66;100512.44;1809302;79;21026;-74
2023/01/01 06:11:06;;;;;;;31.80;16.05;;;;;;;7.81;88.68;100515.89;1799354;79;21021;-76
2023/01/01 06:13:34;;;;;;;34.20;16.93;;;;;;;7.81;88.82;100517.63;1813011;79;21085;-75
2023/01/01 06:16:01;;;;;;;32.38;16.15;;;;;;;7.84;88.98;100515.05;1758677;80;21430;-75
2023/01/01 06:18:34;;;;;;;31.45;16.07;;;;;;;7.81;89.05;100517.63;1766209;80;21574;-76
2023/01/01 06:21:07;;;;;;;33.73;15.15;;;;;;;7.83;89.32;100515.91;1758224;81;20970;-75
2023/01/01 06:23:34;;;;;;;31.62;14.87;;;;;;;7.86;89.37;100515.52;1787335;79;20999;-75
2023/01/01 06:26:07;;;;;;;35.68;15.60;;;;;;;7.88;89.56;100511.22;1762476;80;21068;-75
2023/01/01 06:28:34;;;;;;;37.08;17.42;;;;;;;7.92;89.54;100521.18;1792841;79;21011;-76
2023/01/01 06:31:05;;;;;;;36.73;17.25;;;;;;;7.97;89.54;100529.84;1796142;79;20980;-76
2023/01/01 06:33:32;;;;;;;47.35;24.10;;;;;;;8.03;89.71;100530.32;1785194;80;21038;-75
2023/01/01 06:36:01;;;;;;;49.93;26.20;;;;;;;8.06;89.50;100533.81;1786951;80;20976;-76
2023/01/01 06:38:31;;;;;;;45.95;22.80;;;;;;;8.10;89.25;100536.86;1808932;79;21050;-76
2023/01/01 06:41:02;;;;;;;45.38;21.68;;;;;;;8.09;89.25;100535.11;1775079;80;22205;-76
2023/01/01 06:43:31;;;;;;;46.63;22.62;;;;;;;8.12;89.18;100539.03;1790191;80;21503;-76
2023/01/01 06:46:14;;;;;;;50.10;22.52;;;;;;;8.14;89.12;100537.33;1802554;79;20976;-76
2023/01/01 06:48:40;;;;;;;50.73;22.55;;;;;;;8.15;88.98;100545.95;1781214;80;21011;-75
2023/01/01 06:51:13;;;;;;;42.80;18.87;;;;;;;8.15;88.89;100541.63;1788995;80;20929;-75
2023/01/01 06:53:40;;;;;;;33.63;18.02;;;;;;;8.16;88.57;100563.25;1795457;79;21425;-74
2023/01/01 06:56:07;;;;;;;39.03;18.12;;;;;;;8.12;88.34;100561.06;1792471;79;21039;-75
2023/01/01 06:58:34;;;;;;;36.30;17.35;;;;;;;8.09;88.56;100571.81;1813166;79;20976;-75
2023/01/01 07:01:14;;;;;;;36.98;18.05;;;;;;;8.08;88.91;100569.66;1780721;79;20963;-75
2023/01/01 07:03:42;;;;;;;39.58;17.70;;;;;;;8.09;88.71;100567.92;1808465;79;21752;-75
2023/01/01 07:06:09;;;;;;;39.78;17.75;;;;;;;8.07;88.76;100565.31;1798040;80;21021;-75
2023/01/01 07:08:37;;;;;;;46.60;18.75;;;;;;;8.07;88.73;100576.11;1793744;80;21011;-75
2023/01/01 07:11:05;;;;;;;43.60;21.52;;;;;;;8.02;88.65;100572.20;1798058;80;20947;-74
2023/01/01 07:13:32;;;;;;;41.42;21.02;;;;;;;8.03;88.48;100580.83;1805855;79;21011;-75
2023/01/01 07:15:59;;;;;;;40.65;15.80;;;;;;;8.01;88.71;100574.33;1784132;80;20975;-75
2023/01/01 07:18:26;;;;;;;32.15;15.53;;;;;;;8.00;88.69;100575.61;1793360;79;21012;-75
2023/01/01 07:20:56;;;;;;;34.35;15.78;;;;;;;8.03;89.06;100588.16;1776428;80;20959;-75
2023/01/01 07:23:23;;;;;;;37.28;17.25;;;;;;;8.04;88.51;100587.73;1786463;80;21465;-75
2023/01/01 07:25:51;;;;;;;40.58;17.37;;;;;;;8.03;88.72;100585.58;1796380;78;20988;-75
2023/01/01 07:28:19;;;;;;;45.12;19.48;;;;;;;8.06;88.92;100584.32;1765243;79;20983;-75
2023/01/01 07:30:46;;;;;;;40.33;18.75;;;;;;;8.09;89.20;100576.99;1824883;78;20983;-75
2023/01/01 07:33:16;;;;;;;34.08;16.00;;;;;;;8.12;89.46;100579.19;1812451;78;20998;-74
2023/01/01 07:35:46;;;;;;;38.33;17.25;;;;;;;8.10;89.50;100578.31;1754555;79;20971;-75
2023/01/01 07:38:14;;;;;;;36.80;16.52;;;;;;;8.18;89.65;100588.74;1814366;79;21444;-75
2023/01/01 07:40:41;;;;;;;37.65;16.60;;;;;;;8.25;89.89;100587.06;1760776;79;21458;-76
2023/01/01 07:43:11;;;;;;;35.85;17.07;;;;;;;8.27;89.62;100591.83;1812345;78;20967;-75
2023/01/01 07:45:37;;;;;;;35.28;18.37;;;;;;;8.35;89.67;100591.45;1829945;76;20946;-75
2023/01/01 07:48:04;;;;;;;39.00;19.35;;;;;;;8.44;89.75;100597.19;1810069;78;20952;-75
2023/01/01 07:50:32;;;;;;;43.58;20.82;;;;;;;8.51;89.92;100590.74;1764555;80;20947;-76
2023/01/01 07:52:59;;;;;;;41.40;21.25;;;;;;;8.56;89.62;100590.36;1793064;80;20971;-75
2023/01/01 07:55:26;;;;;;;39.27;20.45;;;;;;;8.65;89.44;100586.95;1799944;79;21035;-75
2023/01/01 07:57:52;;;;;;;74.80;34.67;;;;;;;8.73;88.96;100587.89;1793604;79;20940;-75
2023/01/01 08:00:21;;;;;;;50.55;23.95;;;;;;;8.80;88.72;100581.45;1797591;79;21504;-75
2023/01/01 08:02:48;;;;;;;52.88;26.30;;;;;;;8.84;88.59;100587.09;1793559;78;21392;-75
2023/01/01 08:05:15;;;;;;;47.05;21.40;;;;;;;8.89;88.36;100587.55;1789718;79;21070;-75
2023/01/01 08:07:50;;;;;;;40.28;19.60;;;;;;;8.98;88.15;100581.98;1807482;78;20952;-75
2023/01/01 08:10:21;;;;;;;39.45;19.87;;;;;;;8.98;87.92;100576.79;1780158;78;21520;-76
2023/01/01 08:12:48;;;;;;;35.63;18.30;;;;;;;9.04;87.79;100578.11;1808644;79;21004;-76
2023/01/01 08:15:15;;;;;;;35.90;19.57;;;;;;;9.05;87.53;100582.02;1796521;79;20974;-76
2023/01/01 08:17:41;;;;;;;37.70;18.32;;;;;;;9.13;87.57;100585.52;1806186;78;20922;-76
2023/01/01 08:20:09;;;;;;;39.38;18.07;;;;;;;9.17;87.40;100583.77;1803600;79;20956;-76
2023/01/01 08:22:36;;;;;;;29.90;17.07;;;;;;;9.16;87.30;100584.65;1765553;80;20932;-76
2023/01/01 08:25:03;;;;;;;40.63;19.05;;;;;;;9.16;87.12;100579.46;1813010;76;20941;-75
2023/01/01 08:27:29;;;;;;;42.27;18.90;;;;;;;9.12;87.06;100586.80;1838329;77;21013;-75
2023/01/01 08:29:56;;;;;;;37.55;18.35;;;;;;;9.12;87.16;100585.50;1823391;78;20939;-75
2023/01/01 08:32:22;;;;;;;37.23;18.15;;;;;;;9.20;87.62;100582.50;1770765;80;21443;-76
2023/01/01 08:34:49;;;;;;;37.90;18.55;;;;;;;9.25;87.16;100582.11;1817990;78;20975;-76
2023/01/01 08:37:15;;;;;;;38.48;18.27;;;;;;;9.31;87.03;100579.94;1770679;80;21562;-76
2023/01/01 08:39:41;;;;;;;37.98;17.98;;;;;;;9.36;87.21;100580.40;1826364;78;20986;-76
2023/01/01 08:42:08;;;;;;;42.65;17.80;;;;;;;9.43;87.63;100580.01;1774854;79;20979;-76
2023/01/01 08:44:34;;;;;;;36.25;18.12;;;;;;;9.53;87.27;100574.42;1819625;78;20971;-76
2023/01/01 08:47:00;;;;;;;38.90;19.60;;;;;;;9.62;87.88;100579.61;1776975;79;21447;-76
2023/01/01 08:49:27;;;;;;;39.08;19.37;;;;;;;9.70;86.86;100567.52;1800304;79;20975;-76
2023/01/01 08:51:53;;;;;;;37.03;19.12;;;;;;;9.78;87.07;100567.97;1771570;79;20986;-76
2023/01/01 08:54:20;;;;;;;40.03;20.37;;;;;;;9.83;85.89;100563.63;1802262;79;21002;-76
2023/01/01 08:56:46;;;;;;;41.65;20.72;;;;;;;9.92;86.14;100561.91;1829393;78;21008;-76
2023/01/01 08:59:13;;;;;;;39.08;22.17;;;;;;;10.01;86.16;100554.58;1825346;78;20968;-76
2023/01/01 09:01:39;;;;;;;38.42;20.50;;;;;;;10.10;85.76;100549.37;1808454;78;20989;-76
2023/01/01 09:04:11;;;;;;;38.17;18.62;;;;;;;10.19;86.02;100548.96;1828116;78;20966;-76
2023/01/01 09:06:34;;;;;;;35.60;18.52;;;;;;;10.22;85.90;100554.14;1798811;78;20947;-76
2023/01/01 09:09:01;;;;;;;36.25;18.57;;;;;;;10.23;84.56;100546.35;1820980;78;21033;-76
2023/01/01 09:11:28;;;;;;;34.13;16.95;;;;;;;10.29;85.09;100545.48;1802196;78;21436;-76
2023/01/01 09:13:54;;;;;;;32.50;16.27;;;;;;;10.30;85.13;100539.44;1812655;78;21062;-76
2023/01/01 09:16:22;;;;;;;32.03;16.90;;;;;;;10.29;84.64;100532.48;1826671;78;21694;-76
2023/01/01 09:18:49;;;;;;;29.95;15.30;;;;;;;10.30;84.19;100529.04;1828411;78;21818;-76
2023/01/01 09:21:15;;;;;;;29.77;15.10;;;;;;;10.28;84.12;100520.34;1834653;78;20926;-76
2023/01/01 09:23:41;;;;;;;26.52;13.13;;;;;;;10.22;83.76;100511.25;1814683;78;21007;-76
2023/01/01 09:26:09;;;;;;;25.72;12.90;;;;;;;10.20;84.23;100507.34;1829642;78;20970;-76
2023/01/01 09:28:37;;;;;;;25.75;13.22;;;;;;;10.20;84.05;100503.89;1800110;79;20957;-76
2023/01/01 09:31:05;;;;;;;26.12;13.48;;;;;;;10.18;83.29;100501.73;1821462;78;20958;-75
2023/01/01 09:33:32;;;;;;;30.12;13.78;;;;;;;10.15;83.50;100506.06;1782560;79;21453;-75
2023/01/01 09:36:15;;;;;;;24.05;12.95;;;;;;;10.16;83.67;100509.08;1768846;81;20984;-75
2023/01/01 09:38:41;;;;;;;23.05;12.28;;;;;;;10.16;83.81;100503.88;1817720;78;20988;-76
2023/01/01 09:41:20;;;;;;;22.58;12.10;;;;;;;10.15;83.74;100494.37;1816900;78;20982;-75
2023/01/01 09:43:54;;;;;;;24.77;12.93;;;;;;;10.17;83.59;100502.17;1782123;79;20979;-75
2023/01/01 09:46:24;;;;;;;24.15;12.75;;;;;;;10.20;83.13;100496.09;1769910;79;20968;-75
2023/01/01 09:49:01;;;;;;;19.70;10.08;;;;;;;10.22;83.71;100498.26;1795140;78;20955;-76
2023/01/01 09:51:33;;;;;;;20.25;10.53;;;;;;;10.23;83.44;100498.27;1787730;79;20955;-75
2023/01/01 09:54:32;;;;;;;28.05;11.55;;;;;;;10.25;83.29;100495.67;1804624;79;20987;-75
2023/01/01 09:57:02;;;;;;;21.50;10.38;;;;;;;10.28;83.51;100482.66;1787465;79;21066;-76
2023/01/01 09:59:29;;;;;;;18.80;8.73;;;;;;;10.34;83.37;100481.37;1802699;79;21400;-76
2023/01/01 10:02:21;;;;;;;20.45;8.48;;;;;;;10.41;83.87;100478.34;1801858;79;20978;-76
2023/01/01 10:05:08;;;;;;;17.65;7.78;;;;;;;10.52;84.70;100477.86;1758512;79;20977;-76
2023/01/01 10:07:45;;;;;;;18.52;7.97;;;;;;;10.62;84.57;100477.41;1762015;78;20975;-76
2023/01/01 10:10:40;;;;;;;14.93;8.08;;;;;;;10.71;83.08;100475.64;1803887;79;20973;-76
2023/01/01 10:13:27;;;;;;;18.10;8.90;;;;;;;10.79;83.13;100478.22;1799888;78;21020;-75
2023/01/01 10:15:58;;;;;;;16.65;9.13;;;;;;;10.86;83.36;100466.93;1798287;78;20980;-76
2023/01/01 10:18:36;;;;;;;13.88;7.70;;;;;;;10.93;82.51;100467.31;1800669;79;20955;-76
2023/01/01 10:21:20;;;;;;;17.37;8.38;;;;;;;10.98;82.20;100463.38;1741673;79;21023;-75
2023/01/01 10:24:04;;;;;;;15.60;8.05;;;;;;;10.99;80.17;100473.38;1794889;78;20949;-76
2023/01/01 10:26:32;;;;;;;;;;;;;;;11.02;80.01;100456.02;1797496;78;21898;-76
2023/01/01 10:29:10;;;;;;;13.08;6.85;;;;;;;11.06;80.17;100459.44;1799618;78;20114;-75
2023/01/01 10:31:46;;;;;;;16.85;8.00;;;;;;;11.08;80.07;100451.18;1785826;79;20947;-76
2023/01/01 10:34:27;;;;;;;17.10;8.00;;;;;;;11.13;80.75;100452.03;1785663;78;20963;-76
2023/01/01 10:36:58;;;;;;;13.98;8.33;;;;;;;11.20;81.20;100442.44;1772371;79;21265;-76
2023/01/01 10:39:26;;;;;;;13.75;7.25;;;;;;;11.26;80.54;100439.80;1799346;78;20984;-75
2023/01/01 10:41:53;;;;;;;15.65;8.08;;;;;;;11.33;80.85;100429.78;1803146;78;21038;-75
2023/01/01 10:44:34;;;;;;;13.18;7.20;;;;;;;11.39;80.70;100431.48;1798855;78;21570;-76
2023/01/01 10:47:27;;;;;;;16.00;7.70;;;;;;;11.44;80.41;100431.00;1802511;78;21121;-75
2023/01/01 10:50:01;;;;;;;13.78;7.22;;;;;;;11.54;80.95;100420.52;1729607;79;21586;-76
2023/01/01 10:52:39;;;;;;;16.10;8.20;;;;;;;11.65;80.33;100416.51;1779592;78;21006;-76
2023/01/01 10:55:10;;;;;;;15.48;7.35;;;;;;;11.77;80.87;100416.84;1771258;81;21022;-76
2023/01/01 10:57:39;;;;;;;14.90;7.83;;;;;;;11.86;80.75;100410.26;1769695;81;21034;-76
2023/01/01 11:00:26;;;;;;;15.93;7.37;;;;;;;11.97;80.75;100411.48;1771292;81;21550;-76
2023/01/01 11:03:20;;;;;;;15.38;7.83;;;;;;;12.08;80.37;100400.96;1770334;81;21574;-76
2023/01/01 11:06:08;;;;;;;14.53;7.92;;;;;;;12.19;79.76;100405.60;1769930;81;21046;-76
2023/01/01 11:08:38;;;;;;;14.47;7.03;;;;;;;12.32;80.00;100397.22;1769873;80;21089;-76
2023/01/01 11:11:06;;;;;;;12.65;7.33;;;;;;;12.43;79.68;100397.94;1769930;81;21010;-76
2023/01/01 11:13:33;;;;;;;16.60;7.95;;;;;;;12.50;78.56;100394.39;1769817;81;21375;-76
2023/01/01 11:16:00;;;;;;;13.85;7.60;;;;;;;12.58;78.30;100394.30;1769916;81;21034;-76
2023/01/01 11:18:34;;;;;;;15.70;7.42;;;;;;;12.71;79.11;100394.98;1769945;81;21081;-76
2023/01/01 11:21:04;;;;;;;18.82;8.50;;;;;;;12.80;78.52;100396.18;1769899;81;21002;-76
2023/01/01 11:23:38;;;;;;;16.55;8.13;;;;;;;12.92;79.40;100389.48;1769926;81;21057;-76
2023/01/01 11:26:10;;;;;;;14.85;7.28;;;;;;;13.03;79.13;100388.46;1771204;81;20987;-76
2023/01/01 11:28:37;;;;;;;14.23;6.25;;;;;;;13.13;78.64;100388.77;1769303;80;21503;-76
2023/01/01 11:31:16;;;;;;;11.90;6.33;;;;;;;13.25;77.98;100390.30;1771302;81;20975;-76
2023/01/01 11:33:54;;;;;;;20.77;11.73;;;;;;;13.35;77.82;100388.45;1771251;81;21014;-76
2023/01/01 11:36:25;;;;;;;23.98;12.00;;;;;;;13.46;77.01;100387.84;1771282;81;21018;-76
2023/01/01 11:39:25;;;;;;;21.60;12.30;;;;;;;13.47;76.25;100387.83;1771194;81;21006;-76